Observation data for Tulia on 07/13/2020      Previous  Date  Next       Current Mesonet Observations  Soil Data  Daily Summary Page  Observations in Plain Language
KTIS 130500Z 17012G17KT 31/07 A2996 RMK A01 T03070066  RH  023%=      5-min Rain = 0
KTIS 130505Z 17014KT 31/06 A2996 RMK A01 T03130062  RH  021%=      5-min Rain = 0
KTIS 130510Z 18011KT 31/06 A2997 RMK A01 T03140061  RH  021%=      5-min Rain = 0
KTIS 130515Z 18009KT 31/06 A2996 RMK A01 T03090061  RH  022%=      5-min Rain = 0
KTIS 130520Z 18008KT 31/06 A2996 RMK A01 T03060061  RH  022%=      5-min Rain = 0
KTIS 130525Z 19009KT 31/06 A2996 RMK A01 T03060060  RH  022%=      5-min Rain = 0
KTIS 130530Z 19008KT 31/06 A2996 RMK A01 T03050061  RH  022%=      5-min Rain = 0
KTIS 130535Z 20007KT 30/06 A2996 RMK A01 T03000062  RH  023%=      5-min Rain = 0
KTIS 130540Z 21007KT 30/06 A2996 RMK A01 T02990059  RH  023%=      5-min Rain = 0
KTIS 130545Z 20008KT 30/06 A2996 RMK A01 T02990060  RH  023%=      5-min Rain = 0
KTIS 130550Z 19008KT 30/06 A2996 RMK A01 T02960060  RH  023%=      5-min Rain = 0
KTIS 130555Z 18007KT 29/06 A2996 RMK A01 T02930061  RH  024%=      5-min Rain = 0
KTIS 130600Z 17007KT 29/06 A2995 RMK A01 T02920060  RH  024%=      5-min Rain = 0
KTIS 130605Z 18007KT 30/06 A2995 RMK A01 T02980057  RH  022%=      5-min Rain = 0
KTIS 130610Z 20006KT 30/06 A2996 RMK A01 T02990057  RH  022%=      5-min Rain = 0
KTIS 130615Z 20007KT 30/06 A2996 RMK A01 T03000058  RH  022%=      5-min Rain = 0
KTIS 130620Z 20009KT 31/06 A2996 RMK A01 T03120055  RH  020%=      5-min Rain = 0
KTIS 130625Z 20010KT 32/06 A2996 RMK A01 T03160055  RH  020%=      5-min Rain = 0
KTIS 130630Z 20010KT 32/05 A2996 RMK A01 T03150052  RH  020%=      5-min Rain = 0
KTIS 130635Z 23013G19KT 32/05 A2998 RMK A01 T03160048  RH  019%=      5-min Rain = 0
KTIS 130640Z 26011KT 32/05 A2999 RMK A01 T03220051  RH  019%=      5-min Rain = 0
KTIS 130645Z 25010KT 33/06 A2998 RMK A01 T03260064  RH  020%=      5-min Rain = 0
KTIS 130650Z 24009G16KT 33/07 A2998 RMK A01 T03250074  RH  022%=      5-min Rain = 0
KTIS 130655Z 23013KT 32/08 A2999 RMK A01 T03230082  RH  023%=      5-min Rain = 0
KTIS 130700Z 25010KT 32/09 A2999 RMK A01 T03230086  RH  024%=      5-min Rain = 0
KTIS 130705Z 26012G17KT 32/10 A2999 RMK A01 T03190096  RH  026%=      5-min Rain = 0
KTIS 130710Z 27014KT 32/11 A2999 RMK A01 T03150108  RH  029%=      5-min Rain = 0
KTIS 130715Z 27010KT 31/11 A2998 RMK A01 T03120111  RH  030%=      5-min Rain = 0
KTIS 130720Z 28009KT 31/12 A2998 RMK A01 T03100117  RH  032%=      5-min Rain = 0
KTIS 130725Z 28009KT 31/12 A2998 RMK A01 T03080120  RH  033%=      5-min Rain = 0
KTIS 130730Z 28010G15KT 31/12 A2999 RMK A01 T03080122  RH  033%=      5-min Rain = 0
KTIS 130735Z 30017G22KT 31/13 A2999 RMK A01 T03070126  RH  034%=      5-min Rain = 0
KTIS 130740Z 30014G19KT 31/13 A2999 RMK A01 T03050125  RH  034%=      5-min Rain = 0
KTIS 130745Z 30015KT 30/12 A2998 RMK A01 T03040122  RH  034%=      5-min Rain = 0
KTIS 130750Z 31016KT 30/12 A2998 RMK A01 T03030121  RH  034%=      5-min Rain = 0
KTIS 130755Z 30013G18KT 30/12 A2998 RMK A01 T03030121  RH  034%=      5-min Rain = 0
KTIS 130800Z 30015KT 30/12 A2999 RMK A01 T03000121  RH  035%=      5-min Rain = 0
KTIS 130805Z 31013KT 30/12 A2999 RMK A01 T02970122  RH  036%=      5-min Rain = 0
KTIS 130810Z 32015G20KT 30/12 A2998 RMK A01 T02950122  RH  036%=      5-min Rain = 0
KTIS 130815Z 31016KT 30/12 A2998 RMK A01 T02970120  RH  035%=      5-min Rain = 0
KTIS 130820Z 31013KT 29/12 A2998 RMK A01 T02930121  RH  036%=      5-min Rain = 0
KTIS 130825Z 31011KT 29/12 A2998 RMK A01 T02920120  RH  036%=      5-min Rain = 0
KTIS 130830Z 31009KT 29/12 A2998 RMK A01 T02910121  RH  036%=      5-min Rain = 0
KTIS 130835Z 30008KT 29/12 A2998 RMK A01 T02900120  RH  036%=      5-min Rain = 0
KTIS 130840Z 31006KT 29/12 A2998 RMK A01 T02880120  RH  037%=      5-min Rain = 0
KTIS 130845Z 32006KT 29/12 A2998 RMK A01 T02860120  RH  037%=      5-min Rain = 0
KTIS 130850Z 32006KT 28/12 A2998 RMK A01 T02840120  RH  038%=      5-min Rain = 0
KTIS 130855Z 32005KT 28/12 A2998 RMK A01 T02820120  RH  038%=      5-min Rain = 0
KTIS 130900Z 32006KT 28/12 A2998 RMK A01 T02810120  RH  038%=      5-min Rain = 0
KTIS 130905Z 32007KT 28/12 A2998 RMK A01 T02790120  RH  039%=      5-min Rain = 0
KTIS 130910Z 32007KT 28/12 A2999 RMK A01 T02790120  RH  039%=      5-min Rain = 0
KTIS 130915Z 32006KT 28/12 A2999 RMK A01 T02810121  RH  038%=      5-min Rain = 0
KTIS 130920Z 32007KT 28/12 A2998 RMK A01 T02790121  RH  039%=      5-min Rain = 0
KTIS 130925Z 02005KT 28/12 A2997 RMK A01 T02800123  RH  039%=      5-min Rain = 0
KTIS 130930Z 05003KT 28/13 A2996 RMK A01 T02810125  RH  039%=      5-min Rain = 0
KTIS 130935Z 17006KT 28/13 A2996 RMK A01 T02790128  RH  041%=      5-min Rain = 0
KTIS 130940Z 18002KT 29/13 A2997 RMK A01 T02860126  RH  039%=      5-min Rain = 0
KTIS 130945Z 08003KT 29/13 A2996 RMK A01 T02900128  RH  038%=      5-min Rain = 0
KTIS 130950Z 09005KT 29/13 A2996 RMK A01 T02890129  RH  039%=      5-min Rain = 0
KTIS 130955Z 13006KT 28/13 A2995 RMK A01 T02820132  RH  041%=      5-min Rain = 0
KTIS 131000Z 17008KT 28/13 A2996 RMK A01 T02790128  RH  041%=      5-min Rain = 0
KTIS 131005Z 19009KT 28/13 A2996 RMK A01 T02810127  RH  040%=      5-min Rain = 0
KTIS 131010Z 19010KT 28/13 A2996 RMK A01 T02790126  RH  040%=      5-min Rain = 0
KTIS 131015Z 19009KT 28/13 A2996 RMK A01 T02790126  RH  041%=      5-min Rain = 0
KTIS 131020Z 19009KT 28/12 A2996 RMK A01 T02770124  RH  040%=      5-min Rain = 0
KTIS 131025Z 18009KT 28/12 A2996 RMK A01 T02780124  RH  040%=      5-min Rain = 0
KTIS 131030Z 17007KT 27/13 A2995 RMK A01 T02710126  RH  042%=      5-min Rain = 0
KTIS 131035Z 17007KT 27/13 A2995 RMK A01 T02650126  RH  044%=      5-min Rain = 0
KTIS 131040Z 18007KT 26/12 A2995 RMK A01 T02630122  RH  043%=      5-min Rain = 0
KTIS 131045Z 17007KT 26/12 A2995 RMK A01 T02630123  RH  043%=      5-min Rain = 0
KTIS 131050Z 17007KT 26/12 A2995 RMK A01 T02640122  RH  043%=      5-min Rain = 0
KTIS 131055Z 16009KT 26/13 A2994 RMK A01 T02640125  RH  044%=      5-min Rain = 0
KTIS 131100Z 17008KT 26/13 A2995 RMK A01 T02640126  RH  044%=      5-min Rain = 0
KTIS 131105Z 17007KT 27/13 A2995 RMK A01 T02660125  RH  043%=      5-min Rain = 0
KTIS 131110Z 18007KT 27/12 A2995 RMK A01 T02670123  RH  042%=      5-min Rain = 0
KTIS 131115Z 17009KT 27/12 A2995 RMK A01 T02650123  RH  043%=      5-min Rain = 0
KTIS 131120Z 18011KT 27/12 A2996 RMK A01 T02690121  RH  041%=      5-min Rain = 0
KTIS 131125Z 19012KT 27/12 A2997 RMK A01 T02690119  RH  041%=      5-min Rain = 0
KTIS 131130Z 19011KT 27/12 A2997 RMK A01 T02670118  RH  041%=      5-min Rain = 0
KTIS 131135Z 19010KT 27/12 A2997 RMK A01 T02680118  RH  041%=      5-min Rain = 0
KTIS 131140Z 19009KT 27/12 A2998 RMK A01 T02690118  RH  040%=      5-min Rain = 0
KTIS 131145Z 18008KT 27/12 A2998 RMK A01 T02680117  RH  041%=      5-min Rain = 0
KTIS 131150Z 18007KT 27/12 A2998 RMK A01 T02660118  RH  041%=      5-min Rain = 0
KTIS 131155Z 18007KT 26/12 A2998 RMK A01 T02630118  RH  042%=      5-min Rain = 0
KTIS 131200Z 17007KT 26/12 A2998 RMK A01 T02630117  RH  042%=      5-min Rain = 0
KTIS 131205Z 17008KT 27/12 A2998 RMK A01 T02660115  RH  041%=      5-min Rain = 0
KTIS 131210Z 17008KT 27/11 A2998 RMK A01 T02670113  RH  040%=      5-min Rain = 0
KTIS 131215Z 17009KT 27/11 A2998 RMK A01 T02670111  RH  039%=      5-min Rain = 0
KTIS 131220Z 18009KT 27/11 A2998 RMK A01 T02680108  RH  038%=      5-min Rain = 0
KTIS 131225Z 18009KT 27/11 A2998 RMK A01 T02650108  RH  039%=      5-min Rain = 0
KTIS 131230Z 18009KT 26/11 A2998 RMK A01 T02630108  RH  039%=      5-min Rain = 0
KTIS 131235Z 18009KT 26/11 A2997 RMK A01 T02620108  RH  039%=      5-min Rain = 0
KTIS 131240Z 18009KT 27/10 A2997 RMK A01 T02650104  RH  038%=      5-min Rain = 0
KTIS 131245Z 18008KT 27/10 A2997 RMK A01 T02700102  RH  036%=      5-min Rain = 0
KTIS 131250Z 18008KT 27/10 A2998 RMK A01 T02730103  RH  036%=      5-min Rain = 0
KTIS 131255Z 18009KT 27/10 A2997 RMK A01 T02740100  RH  035%=      5-min Rain = 0
KTIS 131300Z 18010KT 28/10 A2997 RMK A01 T02760095  RH  033%=      5-min Rain = 0
KTIS 131305Z 19011KT 28/09 A2998 RMK A01 T02790094  RH  032%=      5-min Rain = 0
KTIS 131310Z 19010KT 28/10 A2998 RMK A01 T02800095  RH  032%=      5-min Rain = 0
KTIS 131315Z 19010KT 28/10 A2998 RMK A01 T02790096  RH  033%=      5-min Rain = 0
KTIS 131320Z 19011KT 28/10 A2998 RMK A01 T02820097  RH  032%=      5-min Rain = 0
KTIS 131325Z 19013KT 29/10 A2998 RMK A01 T02900098  RH  031%=      5-min Rain = 0
KTIS 131330Z 19013G18KT 29/10 A2998 RMK A01 T02940098  RH  031%=      5-min Rain = 0
KTIS 131335Z 20014KT 30/10 A2998 RMK A01 T02960099  RH  030%=      5-min Rain = 0
KTIS 131340Z 20015KT 30/10 A2998 RMK A01 T03000099  RH  030%=      5-min Rain = 0
KTIS 131345Z 20014KT 30/10 A2998 RMK A01 T03010100  RH  030%=      5-min Rain = 0
KTIS 131350Z 20014KT 30/10 A2998 RMK A01 T03020101  RH  030%=      5-min Rain = 0
KTIS 131355Z 20016KT 31/10 A2998 RMK A01 T03050100  RH  029%=      5-min Rain = 0
KTIS 131400Z 20016KT 31/10 A2998 RMK A01 T03070100  RH  029%=      5-min Rain = 0
KTIS 131405Z 20016KT 31/10 A2998 RMK A01 T03090101  RH  028%=      5-min Rain = 0
KTIS 131410Z 20017KT 31/10 A2998 RMK A01 T03110099  RH  028%=      5-min Rain = 0
KTIS 131415Z 20017G22KT 31/10 A2998 RMK A01 T03130099  RH  028%=      5-min Rain = 0
KTIS 131420Z 20017KT 32/10 A2998 RMK A01 T03150101  RH  028%=      5-min Rain = 0
KTIS 131425Z 21018G24KT 32/10 A2998 RMK A01 T03160100  RH  027%=      5-min Rain = 0
KTIS 131430Z 21018KT 32/10 A2998 RMK A01 T03160098  RH  027%=      5-min Rain = 0
KTIS 131435Z 22017G22KT 32/10 A2998 RMK A01 T03170099  RH  027%=      5-min Rain = 0
KTIS 131440Z 21016G21KT 32/10 A2998 RMK A01 T03210102  RH  027%=      5-min Rain = 0
KTIS 131445Z 20017KT 32/10 A2998 RMK A01 T03200102  RH  027%=      5-min Rain = 0
KTIS 131450Z 21017G22KT 32/10 A2997 RMK A01 T03220102  RH  027%=      5-min Rain = 0
KTIS 131455Z 21018KT 32/10 A2997 RMK A01 T03230099  RH  026%=      5-min Rain = 0
KTIS 131500Z 21017G22KT 33/10 A2997 RMK A01 T03250098  RH  026%=      5-min Rain = 0
KTIS 131505Z 21016G21KT 33/10 A2997 RMK A01 T03260100  RH  026%=      5-min Rain = 0
KTIS 131510Z 21016KT 33/10 A2996 RMK A01 T03280100  RH  026%=      5-min Rain = 0
KTIS 131515Z 21017KT 33/10 A2996 RMK A01 T03300099  RH  025%=      5-min Rain = 0
KTIS 131520Z 21016G21KT 33/10 A2996 RMK A01 T03330099  RH  025%=      5-min Rain = 0
KTIS 131525Z 20016KT 34/10 A2996 RMK A01 T03370101  RH  024%=      5-min Rain = 0
KTIS 131530Z 20016KT 34/10 A2996 RMK A01 T03370100  RH  024%=      5-min Rain = 0
KTIS 131535Z 20015G20KT 34/10 A2996 RMK A01 T03370099  RH  024%=      5-min Rain = 0
KTIS 131540Z 21016G21KT 34/10 A2996 RMK A01 T03410099  RH  023%=      5-min Rain = 0
KTIS 131545Z 21015KT 35/10 A2996 RMK A01 T03460098  RH  023%=      5-min Rain = 0
KTIS 131550Z 21017KT 35/10 A2996 RMK A01 T03460096  RH  022%=      5-min Rain = 0
KTIS 131555Z 20015KT 35/10 A2996 RMK A01 T03460099  RH  023%=      5-min Rain = 0
KTIS 131600Z 20015G21KT 35/10 A2996 RMK A01 T03510098  RH  022%=      5-min Rain = 0
KTIS 131605Z 22016G21KT 35/09 A2996 RMK A01 T03530094  RH  021%=      5-min Rain = 0
KTIS 131610Z 21016G21KT 36/10 A2996 RMK A01 T03550095  RH  021%=      5-min Rain = 0
KTIS 131615Z 20016G23KT 36/09 A2995 RMK A01 T03580093  RH  021%=      5-min Rain = 0
KTIS 131620Z 20019G25KT 36/09 A2995 RMK A01 T03600088  RH  020%=      5-min Rain = 0
KTIS 131625Z 20017G24KT 36/09 A2995 RMK A01 T03610087  RH  019%=      5-min Rain = 0
KTIS 131630Z 20017KT 36/08 A2995 RMK A01 T03640084  RH  019%=      5-min Rain = 0
KTIS 131635Z 20015G20KT 37/09 A2995 RMK A01 T03660087  RH  019%=      5-min Rain = 0
KTIS 131640Z 20016KT 37/09 A2995 RMK A01 T03650088  RH  019%=      5-min Rain = 0
KTIS 131645Z 21017G22KT 37/08 A2994 RMK A01 T03680081  RH  018%=      5-min Rain = 0
KTIS 131650Z 21018KT 37/07 A2994 RMK A01 T03710072  RH  017%=      5-min Rain = 0
KTIS 131655Z 21014G21KT 37/08 A2994 RMK A01 T03730080  RH  017%=      5-min Rain = 0
KTIS 131700Z 20018G25KT 38/08 A2994 RMK A01 T03760080  RH  017%=      5-min Rain = 0
KTIS 131705Z 20018G26KT 38/08 A2994 RMK A01 T03770080  RH  017%=      5-min Rain = 0
KTIS 131710Z 22018G23KT 38/08 A2993 RMK A01 T03780082  RH  017%=      5-min Rain = 0
KTIS 131715Z 20020G25KT 38/08 A2993 RMK A01 T03820084  RH  017%=      5-min Rain = 0
KTIS 131720Z 20018G25KT 38/08 A2993 RMK A01 T03810082  RH  017%=      5-min Rain = 0
KTIS 131725Z 19018G24KT 38/09 A2993 RMK A01 T03840088  RH  017%=      5-min Rain = 0
KTIS 131730Z 20017G26KT 38/09 A2993 RMK A01 T03840086  RH  017%=      5-min Rain = 0
KTIS 131735Z 21017G25KT 39/09 A2992 RMK A01 T03870086  RH  017%=      5-min Rain = 0
KTIS 131740Z 20017G23KT 39/08 A2992 RMK A01 T03900081  RH  016%=      5-min Rain = 0
KTIS 131745Z 20020G27KT 39/08 A2992 RMK A01 T03910080  RH  016%=      5-min Rain = 0
KTIS 131750Z 20017G23KT 39/08 A2992 RMK A01 T03920081  RH  016%=      5-min Rain = 0
KTIS 131755Z 20019G26KT 40/08 A2992 RMK A01 T03950084  RH  016%=      5-min Rain = 0
KTIS 131800Z 20020G26KT 39/09 A2992 RMK A01 T03940085  RH  016%=      5-min Rain = 0
KTIS 131805Z 22017G25KT 39/08 A2992 RMK A01 T03940081  RH  016%=      5-min Rain = 0
KTIS 131810Z 21017G24KT 40/08 A2991 RMK A01 T03960080  RH  015%=      5-min Rain = 0
KTIS 131815Z 20018G26KT 40/08 A2991 RMK A01 T03990080  RH  015%=      5-min Rain = 0
KTIS 131820Z 21017G26KT 40/08 A2991 RMK A01 T04000079  RH  015%=      5-min Rain = 0
KTIS 131825Z 22018G24KT 40/08 A2991 RMK A01 T03990076  RH  015%=      5-min Rain = 0
KTIS 131830Z 21015G22KT 40/08 A2991 RMK A01 T04000076  RH  014%=      5-min Rain = 0
KTIS 131835Z 22015G21KT 40/08 A2991 RMK A01 T04010076  RH  014%=      5-min Rain = 0
KTIS 131840Z 21017G25KT 40/08 A299 RMK A01 T04040077  RH  014%=      5-min Rain = 0
KTIS 131845Z 21013G22KT 40/08 A299 RMK A01 T04030076  RH  014%=      5-min Rain = 0
KTIS 131850Z 21015G21KT 41/08 A299 RMK A01 T04080076  RH  014%=      5-min Rain = 0
KTIS 131855Z 22014G20KT 41/07 A299 RMK A01 T04070072  RH  014%=      5-min Rain = 0
KTIS 131900Z 22012G19KT 41/08 A299 RMK A01 T04050075  RH  014%=      5-min Rain = 0
KTIS 131905Z 24013G19KT 41/08 A299 RMK A01 T04090079  RH  014%=      5-min Rain = 0
KTIS 131910Z 25012G19KT 41/08 A2989 RMK A01 T04070079  RH  014%=      5-min Rain = 0
KTIS 131915Z 24013KT 41/08 A2989 RMK A01 T04100083  RH  015%=      5-min Rain = 0
KTIS 131920Z 23010G15KT 41/08 A2989 RMK A01 T04080084  RH  015%=      5-min Rain = 0
KTIS 131925Z 24009G17KT 41/09 A2989 RMK A01 T04120086  RH  015%=      5-min Rain = 0
KTIS 131930Z 21010G17KT 41/09 A2988 RMK A01 T04100088  RH  015%=      5-min Rain = 0
KTIS 131935Z 22011G18KT 41/09 A2988 RMK A01 T04110088  RH  015%=      5-min Rain = 0
KTIS 131940Z 22011KT 41/09 A2988 RMK A01 T04140087  RH  015%=      5-min Rain = 0
KTIS 131945Z 22012G18KT 41/09 A2988 RMK A01 T04080088  RH  015%=      5-min Rain = 0
KTIS 131950Z 24014G20KT 41/09 A2988 RMK A01 T04140086  RH  014%=      5-min Rain = 0
KTIS 131955Z 26010G15KT 42/08 A2988 RMK A01 T04180083  RH  014%=      5-min Rain = 0
KTIS 132000Z 24013KT 41/08 A2988 RMK A01 T04140082  RH  014%=      5-min Rain = 0
KTIS 132005Z 24010KT 41/08 A2988 RMK A01 T04140082  RH  014%=      5-min Rain = 0
KTIS 132010Z 22013KT 42/08 A2987 RMK A01 T04170083  RH  014%=      5-min Rain = 0
KTIS 132015Z 24008G16KT 41/08 A2987 RMK A01 T04120081  RH  014%=      5-min Rain = 0
KTIS 132020Z 26007G16KT 41/08 A2987 RMK A01 T04120080  RH  014%=      5-min Rain = 0
KTIS 132025Z 24009KT 42/08 A2987 RMK A01 T04160083  RH  014%=      5-min Rain = 0
KTIS 132030Z 25007G13KT 42/08 A2987 RMK A01 T04190084  RH  014%=      5-min Rain = 0
KTIS 132035Z 27014G19KT 42/08 A2986 RMK A01 T04210083  RH  014%=      5-min Rain = 0
KTIS 132040Z 27012G18KT 42/08 A2986 RMK A01 T04180082  RH  014%=      5-min Rain = 0
KTIS 132045Z 22013G19KT 42/08 A2986 RMK A01 T04190083  RH  014%=      5-min Rain = 0
KTIS 132050Z 24008KT 42/08 A2986 RMK A01 T04200083  RH  014%=      5-min Rain = 0
KTIS 132055Z 26012G18KT 42/08 A2985 RMK A01 T04190081  RH  014%=      5-min Rain = 0
KTIS 132100Z 24012G17KT 42/08 A2985 RMK A01 T04200082  RH  014%=      5-min Rain = 0
KTIS 132105Z 26010G15KT 42/08 A2985 RMK A01 T04220082  RH  014%=      5-min Rain = 0
KTIS 132110Z 23009G18KT 42/08 A2985 RMK A01 T04170083  RH  014%=      5-min Rain = 0
KTIS 132115Z 25014KT 42/09 A2984 RMK A01 T04220087  RH  014%=      5-min Rain = 0
KTIS 132120Z 26010G15KT 42/09 A2984 RMK A01 T04200085  RH  014%=      5-min Rain = 0
KTIS 132125Z 24009G15KT 42/09 A2984 RMK A01 T04190086  RH  014%=      5-min Rain = 0
KTIS 132130Z 26010G15KT 42/09 A2984 RMK A01 T04200087  RH  014%=      5-min Rain = 0
KTIS 132135Z 24011G17KT 42/09 A2984 RMK A01 T04210088  RH  014%=      5-min Rain = 0
KTIS 132140Z 27006KT 42/09 A2984 RMK A01 T04170087  RH  014%=      5-min Rain = 0
KTIS 132145Z 21009G16KT 42/09 A2984 RMK A01 T04170086  RH  014%=      5-min Rain = 0
KTIS 132150Z 20006KT 42/08 A2983 RMK A01 T04170083  RH  014%=      5-min Rain = 0
KTIS 132155Z 21008G15KT 42/09 A2983 RMK A01 T04190087  RH  014%=      5-min Rain = 0
KTIS 132200Z 24012G17KT 42/09 A2983 RMK A01 T04240085  RH  014%=      5-min Rain = 0
KTIS 132205Z 24007G12KT 42/09 A2983 RMK A01 T04210085  RH  014%=      5-min Rain = 0
KTIS 132210Z 22009KT 42/09 A2983 RMK A01 T04190085  RH  014%=      5-min Rain = 0
KTIS 132215Z 24010G17KT 42/08 A2982 RMK A01 T04190083  RH  014%=      5-min Rain = 0
KTIS 132220Z 25006G13KT 42/08 A2982 RMK A01 T04150083  RH  014%=      5-min Rain = 0
KTIS 132225Z 20009G16KT 42/09 A2982 RMK A01 T04220086  RH  014%=      5-min Rain = 0
KTIS 132230Z 18010G17KT 42/09 A2982 RMK A01 T04190087  RH  014%=      5-min Rain = 0
KTIS 132235Z 20016KT 42/09 A2981 RMK A01 T04220087  RH  014%=      5-min Rain = 0
KTIS 132240Z 19011KT 42/09 A2982 RMK A01 T04210086  RH  014%=      5-min Rain = 0
KTIS 132245Z 20010G15KT 42/09 A2981 RMK A01 T04230086  RH  014%=      5-min Rain = 0
KTIS 132250Z 20008G14KT 42/09 A2981 RMK A01 T04220085  RH  014%=      5-min Rain = 0
KTIS 132255Z 24008G14KT 42/09 A2981 RMK A01 T04210085  RH  014%=      5-min Rain = 0
KTIS 132300Z 25008KT 42/09 A2981 RMK A01 T04210085  RH  014%=      5-min Rain = 0
KTIS 132305Z 22010G16KT 42/09 A2981 RMK A01 T04240086  RH  014%=      5-min Rain = 0
KTIS 132310Z 21008G15KT 41/08 A2981 RMK A01 T04130083  RH  014%=      5-min Rain = 0
KTIS 132315Z 21011KT 42/09 A298 RMK A01 T04180085  RH  014%=      5-min Rain = 0
KTIS 132320Z 21008G13KT 42/08 A298 RMK A01 T04170083  RH  014%=      5-min Rain = 0
KTIS 132325Z 23009G14KT 42/08 A298 RMK A01 T04160082  RH  014%=      5-min Rain = 0
KTIS 132330Z 23007KT 41/08 A298 RMK A01 T04120081  RH  014%=      5-min Rain = 0
KTIS 132335Z 18011G16KT 42/09 A298 RMK A01 T04160088  RH  015%=      5-min Rain = 0
KTIS 132340Z 18012KT 42/09 A298 RMK A01 T04190088  RH  014%=      5-min Rain = 0
KTIS 132345Z 18013G19KT 42/09 A298 RMK A01 T04190086  RH  014%=      5-min Rain = 0
KTIS 132350Z 18016G21KT 42/08 A298 RMK A01 T04180082  RH  014%=      5-min Rain = 0
KTIS 132355Z 19016KT 41/08 A298 RMK A01 T04130078  RH  014%=      5-min Rain = 0
KTIS 140000Z 19014G19KT 41/08 A298 RMK A01 T04070078  RH  014%=      5-min Rain = 0
KTIS 140005Z 19015KT 41/08 A298 RMK A01 T04050077  RH  014%=      5-min Rain = 0
KTIS 140010Z 20019KT 41/08 A2979 RMK A01 T04070076  RH  014%=      5-min Rain = 0
KTIS 140015Z 20016KT 41/08 A2979 RMK A01 T04090077  RH  014%=      5-min Rain = 0
KTIS 140020Z 20018KT 41/08 A298 RMK A01 T04050077  RH  014%=      5-min Rain = 0
KTIS 140025Z 20016G21KT 40/08 A298 RMK A01 T04000076  RH  015%=      5-min Rain = 0
KTIS 140030Z 20013G18KT 40/08 A298 RMK A01 T03970077  RH  015%=      5-min Rain = 0
KTIS 140035Z 20013KT 40/08 A298 RMK A01 T03950075  RH  015%=      5-min Rain = 0
KTIS 140040Z 19013KT 39/07 A298 RMK A01 T03930071  RH  015%=      5-min Rain = 0
KTIS 140045Z 20014KT 39/07 A298 RMK A01 T03910070  RH  015%=      5-min Rain = 0
KTIS 140050Z 20013KT 39/07 A298 RMK A01 T03880071  RH  015%=      5-min Rain = 0
KTIS 140055Z 20011KT 39/07 A298 RMK A01 T03860073  RH  015%=      5-min Rain = 0
KTIS 140100Z 20011KT 38/07 A298 RMK A01 T03840072  RH  015%=      5-min Rain = 0
KTIS 140105Z 20010KT 38/07 A298 RMK A01 T03810073  RH  016%=      5-min Rain = 0
KTIS 140110Z 20008KT 38/08 A298 RMK A01 T03780077  RH  017%=      5-min Rain = 0
KTIS 140115Z 20007KT 37/08 A298 RMK A01 T03720081  RH  018%=      5-min Rain = 0
KTIS 140120Z 19010KT 37/08 A298 RMK A01 T03710078  RH  017%=      5-min Rain = 0
KTIS 140125Z 19010KT 37/08 A298 RMK A01 T03720075  RH  017%=      5-min Rain = 0
KTIS 140130Z 19009KT 37/08 A2981 RMK A01 T03700076  RH  017%=      5-min Rain = 0
KTIS 140135Z 20009KT 37/08 A2981 RMK A01 T03680077  RH  017%=      5-min Rain = 0
KTIS 140140Z 20011KT 37/08 A2981 RMK A01 T03680077  RH  017%=      5-min Rain = 0
KTIS 140145Z 19010KT 37/08 A2981 RMK A01 T03680077  RH  017%=      5-min Rain = 0
KTIS 140150Z 19010KT 37/08 A2981 RMK A01 T03660076  RH  018%=      5-min Rain = 0
KTIS 140155Z 20009KT 36/08 A2982 RMK A01 T03640076  RH  018%=      5-min Rain = 0
KTIS 140200Z 29017G28KT 36/08 A2985 RMK A01 T03600080  RH  019%=      5-min Rain = 0
KTIS 140205Z 32020G26KT 35/10 A2986 RMK A01 T03490097  RH  022%=      5-min Rain = 0
KTIS 140210Z 32022G29KT 34/10 A2986 RMK A01 T03430101  RH  024%=      5-min Rain = 0
KTIS 140215Z 31019G26KT 34/11 A2986 RMK A01 T03400105  RH  025%=      5-min Rain = 0
KTIS 140220Z 29024KT 32/12 A2987 RMK A01 T03240124  RH  031%=      5-min Rain = 0
KTIS 140225Z 29021G29KT 32/12 A2988 RMK A01 T03220120  RH  030%=      5-min Rain = 0
KTIS 140230Z 31018G24KT 33/11 A2988 RMK A01 T03270113  RH  028%=      5-min Rain = 0
KTIS 140235Z 31019G24KT 33/11 A2988 RMK A01 T03290112  RH  028%=      5-min Rain = 0
KTIS 140240Z 32018KT 33/11 A2987 RMK A01 T03310110  RH  027%=      5-min Rain = 0
KTIS 140245Z 31019KT 33/11 A2987 RMK A01 T03320108  RH  026%=      5-min Rain = 0
KTIS 140250Z 32019G24KT 34/10 A2988 RMK A01 T03370102  RH  025%=      5-min Rain = 0
KTIS 140255Z 33015KT 34/10 A2988 RMK A01 T03400100  RH  024%=      5-min Rain = 0
KTIS 140300Z 33009KT 34/10 A2988 RMK A01 T03390100  RH  024%=      5-min Rain = 0
KTIS 140305Z 20009G17KT 34/10 A2989 RMK A01 T03400099  RH  024%=      5-min Rain = 0
KTIS 140310Z 16009KT 35/10 A2988 RMK A01 T03450095  RH  022%=      5-min Rain = 0
KTIS 140315Z 15016G24KT 35/09 A2987 RMK A01 T03470092  RH  022%=      5-min Rain = 0
KTIS 140320Z 16014G22KT 35/09 A2988 RMK A01 T03540087  RH  020%=      5-min Rain = 0
KTIS 140325Z 15011KT 35/09 A2987 RMK A01 T03540088  RH  020%=      5-min Rain = 0
KTIS 140330Z 20009G14KT 36/08 A2988 RMK A01 T03590079  RH  019%=      5-min Rain = 0
KTIS 140335Z 22010G16KT 37/08 A2989 RMK A01 T03660077  RH  018%=      5-min Rain = 0
KTIS 140340Z 26017G25KT 36/08 A299 RMK A01 T03630081  RH  018%=      5-min Rain = 0
KTIS 140345Z 27011G29KT 36/08 A299 RMK A01 T03610079  RH  018%=      5-min Rain = 0
KTIS 140350Z 16007G12KT 36/08 A2989 RMK A01 T03620082  RH  019%=      5-min Rain = 0
KTIS 140355Z 17014KT 35/08 A2989 RMK A01 T03520081  RH  020%=      5-min Rain = 0
KTIS 140400Z 18019G24KT 36/07 A2989 RMK A01 T03580074  RH  018%=      5-min Rain = 0
KTIS 140405Z 17018KT 36/08 A2989 RMK A01 T03580075  RH  018%=      5-min Rain = 0
KTIS 140410Z 16016G21KT 36/08 A2989 RMK A01 T03560077  RH  019%=      5-min Rain = 0
KTIS 140415Z 15013G18KT 35/08 A2988 RMK A01 T03530077  RH  019%=      5-min Rain = 0
KTIS 140420Z 16015G20KT 35/08 A2988 RMK A01 T03530075  RH  019%=      5-min Rain = 0
KTIS 140425Z 17017G23KT 36/08 A2988 RMK A01 T03560075  RH  018%=      5-min Rain = 0
KTIS 140430Z 17013KT 35/08 A2989 RMK A01 T03500078  RH  019%=      5-min Rain = 0
KTIS 140435Z 16011KT 35/08 A299 RMK A01 T03470078  RH  020%=      5-min Rain = 0
KTIS 140440Z 15012KT 34/08 A299 RMK A01 T03440078  RH  020%=      5-min Rain = 0
KTIS 140445Z 16011G18KT 35/07 A299 RMK A01 T03470074  RH  019%=      5-min Rain = 0
KTIS 140450Z 17010KT 35/07 A2992 RMK A01 T03510073  RH  019%=      5-min Rain = 0
KTIS 140455Z 20014G23KT 35/07 A2993 RMK A01 T03500074  RH  019%=      5-min Rain = 0

Page generated in 0.0096 seconds.